createdAt,value
2022-09-27T00:01:19.555Z,99466.19
2022-09-27T00:03:48.433Z,99474.81
2022-09-27T00:06:30.383Z,99482.56
2022-09-27T00:09:00.742Z,99494.56
2022-09-27T00:11:29.397Z,99496.06
2022-09-27T00:13:59.807Z,99482.41
2022-09-27T00:16:34.238Z,99490.34
2022-09-27T00:19:05.747Z,99485.34
2022-09-27T00:21:34.761Z,99487.06
2022-09-27T00:24:04.199Z,99505.94
2022-09-27T00:26:33.200Z,99506.69
2022-09-27T00:29:02.058Z,99468.06
2022-09-27T00:31:32.335Z,99450.88
2022-09-27T00:34:03.319Z,99472.31
2022-09-27T00:36:33.004Z,99483.28
2022-09-27T00:39:02.655Z,99448.94
2022-09-27T00:41:34.585Z,99457.38
2022-09-27T00:44:24.715Z,99446.25
2022-09-27T00:47:20.976Z,99465.94
2022-09-27T00:50:00.710Z,99457.25
2022-09-27T00:52:34.867Z,99429.00
2022-09-27T00:55:11.310Z,99444.38
2022-09-27T00:57:41.072Z,99394.88
2022-09-27T01:00:12.161Z,99423.09
2022-09-27T01:02:45.158Z,99435.16
2022-09-27T01:05:16.999Z,99477.31
2022-09-27T01:07:45.697Z,99460.25
2022-09-27T01:10:16.679Z,99461.75
2022-09-27T01:13:06.278Z,99473.75
2022-09-27T01:15:59.520Z,99463.41
2022-09-27T01:19:23.873Z,99434.44
2022-09-27T01:22:02.561Z,99429.97
2022-09-27T01:24:38.125Z,99449.66
2022-09-27T01:27:38.963Z,99450.53
2022-09-27T01:30:19.593Z,99441.00
2022-09-27T01:33:08.920Z,99420.72
2022-09-27T01:35:58.688Z,99463.69
2022-09-27T01:39:05.764Z,99442.16
2022-09-27T01:41:57.930Z,99457.72
2022-09-27T01:44:41.583Z,99464.38
2022-09-27T01:47:24.302Z,99436.19
2022-09-27T01:50:26.737Z,99432.00
2022-09-27T01:53:07.110Z,99441.59
2022-09-27T01:55:49.456Z,99445.81
2022-09-27T01:58:41.846Z,99419.94
2022-09-27T02:01:15.236Z,99410.34
2022-09-27T02:03:51.335Z,99409.34
2022-09-27T02:06:47.937Z,99361.53
2022-09-27T02:09:36.016Z,99393.09
2022-09-27T02:12:16.544Z,99414.75
2022-09-27T02:14:51.343Z,99456.81
2022-09-27T02:17:56.225Z,99444.72
2022-09-27T02:20:30.937Z,99436.88
2022-09-27T02:23:23.978Z,99415.50
2022-09-27T02:26:33.998Z,99428.47
2022-09-27T02:29:17.238Z,99438.66
2022-09-27T02:31:55.155Z,99441.31
2022-09-27T02:34:27.766Z,99451.56
2022-09-27T02:36:57.648Z,99417.09
2022-09-27T02:39:27.188Z,99423.25
2022-09-27T02:42:03.614Z,99413.66
2022-09-27T02:44:32.980Z,99425.66
2022-09-27T02:47:13.657Z,99439.50
2022-09-27T02:50:13.305Z,99445.59
2022-09-27T02:53:12.218Z,99447.38
2022-09-27T02:56:04.944Z,99448.97
2022-09-27T02:59:05.441Z,99448.06
2022-09-27T03:02:24.209Z,99448.13
2022-09-27T03:05:26.522Z,99415.66
2022-09-27T03:07:55.339Z,99390.91
2022-09-27T03:10:27.766Z,99452.44
2022-09-27T03:12:59.577Z,99437.91
2022-09-27T03:15:28.808Z,99445.66
2022-09-27T03:18:03.380Z,99458.56
2022-09-27T03:20:44.274Z,99442.00
2022-09-27T03:23:15.781Z,99420.66
2022-09-27T03:25:45.154Z,99419.59
2022-09-27T03:28:14.765Z,99411.94
2022-09-27T03:30:47.101Z,99382.00
2022-09-27T03:33:34.642Z,99441.16
2022-09-27T03:36:09.403Z,99405.97
2022-09-27T03:38:38.188Z,99429.09
2022-09-27T03:41:09.631Z,99428.09
2022-09-27T03:43:38.492Z,99434.13
2022-09-27T03:46:07.838Z,99431.41
2022-09-27T03:48:37.194Z,99428.94
2022-09-27T03:51:05.953Z,99420.44
2022-09-27T03:53:35.231Z,99438.34
2022-09-27T03:56:04.521Z,99440.91
2022-09-27T03:58:33.619Z,99446.06
2022-09-27T04:01:03.055Z,99433.31
2022-09-27T04:03:37.189Z,99435.56
2022-09-27T04:06:27.914Z,99426.09
2022-09-27T04:08:57.047Z,99416.72
2022-09-27T04:11:34.897Z,99414.06
2022-09-27T04:14:05.769Z,99419.19
2022-09-27T04:16:42.239Z,99358.38
2022-09-27T04:19:37.749Z,99400.41
2022-09-27T04:22:12.577Z,99395.34
2022-09-27T04:24:41.710Z,99409.69
2022-09-27T04:27:23.601Z,99413.19
2022-09-27T04:29:52.978Z,99397.84
2022-09-27T04:32:48.133Z,99412.38
2022-09-27T04:36:10.483Z,99404.69
2022-09-27T04:38:42.166Z,99421.78
2022-09-27T04:41:11.346Z,99382.19
2022-09-27T04:43:41.847Z,99398.44
2022-09-27T04:46:10.743Z,99386.50
2022-09-27T04:48:39.629Z,99429.13
2022-09-27T04:51:08.813Z,99399.91
2022-09-27T04:53:37.809Z,99379.41
2022-09-27T04:56:07.335Z,99442.88
2022-09-27T04:58:37.479Z,99436.09
2022-09-27T05:01:13.297Z,99414.81
2022-09-27T05:04:03.613Z,99455.09
2022-09-27T05:06:37.985Z,99468.19
2022-09-27T05:09:11.387Z,99436.72
2022-09-27T05:11:50.700Z,99494.06
2022-09-27T05:14:39.224Z,99496.38
2022-09-27T05:17:24.331Z,99489.66
2022-09-27T05:20:31.798Z,99461.34
2022-09-27T05:23:19.620Z,99461.22
2022-09-27T05:25:48.581Z,99462.09
2022-09-27T05:28:17.389Z,99422.47
2022-09-27T05:30:46.564Z,99370.47
2022-09-27T05:33:20.305Z,99451.75
2022-09-27T05:36:10.388Z,99424.41
2022-09-27T05:38:39.347Z,99421.59
2022-09-27T05:41:08.054Z,99421.78
2022-09-27T05:43:37.322Z,99436.31
2022-09-27T05:46:06.300Z,99431.19
2022-09-27T05:48:35.915Z,99428.53
2022-09-27T05:51:08.934Z,99422.53
2022-09-27T05:53:41.097Z,99446.47
2022-09-27T05:56:18.545Z,99455.25
2022-09-27T05:59:09.352Z,99362.72
2022-09-27T06:01:57.959Z,99432.81
2022-09-27T06:04:45.273Z,99418.91
2022-09-27T06:07:32.992Z,99436.09
2022-09-27T06:10:04.996Z,99447.13
2022-09-27T06:12:37.861Z,99440.28
2022-09-27T06:15:18.073Z,99421.41
2022-09-27T06:17:47.694Z,99442.66
2022-09-27T06:20:19.347Z,99434.25
2022-09-27T06:22:49.346Z,99406.69
2022-09-27T06:25:21.178Z,99447.34
2022-09-27T06:28:06.095Z,99452.50
2022-09-27T06:30:47.466Z,99425.00
2022-09-27T06:33:46.852Z,99438.63
2022-09-27T06:38:50.664Z,99434.78
2022-09-27T06:41:23.297Z,99428.75
2022-09-27T06:44:10.509Z,99416.66
2022-09-27T06:46:40.706Z,99386.44
2022-09-27T06:49:26.004Z,99419.06
2022-09-27T06:51:56.316Z,99419.22
2022-09-27T06:54:25.103Z,99441.47
2022-09-27T06:56:54.939Z,99425.22
2022-09-27T07:00:04.365Z,99385.78
2022-09-27T07:02:52.058Z,99427.03
2022-09-27T07:05:40.226Z,99444.25
2022-09-27T07:08:30.688Z,99418.63
2022-09-27T07:11:08.373Z,99424.63
2022-09-27T07:13:41.103Z,99383.59
2022-09-27T07:16:13.971Z,99425.38
2022-09-27T07:18:43.838Z,99438.41
2022-09-27T07:21:13.502Z,99375.19
2022-09-27T07:23:42.222Z,99427.31
2022-09-27T07:26:13.908Z,99391.34
2022-09-27T07:28:43.268Z,99440.94
2022-09-27T07:31:15.426Z,99429.94
2022-09-27T07:33:44.389Z,99436.03
2022-09-27T07:36:14.697Z,99403.19
2022-09-27T07:38:46.084Z,99432.22
2022-09-27T07:41:16.549Z,99420.09
2022-09-27T07:43:46.387Z,99458.66
2022-09-27T07:46:16.200Z,99455.19
2022-09-27T07:48:54.306Z,99432.03
2022-09-27T07:51:41.728Z,99429.63
2022-09-27T07:54:30.956Z,99437.31
2022-09-27T07:57:18.167Z,99437.31
2022-09-27T07:59:51.240Z,99458.84
2022-09-27T08:02:22.489Z,99439.81
2022-09-27T08:04:53.655Z,99439.16
2022-09-27T08:07:23.407Z,99417.00
2022-09-27T08:09:55.344Z,99407.66
2022-09-27T08:12:25.101Z,99429.09
2022-09-27T08:14:54.042Z,99446.47
2022-09-27T08:17:24.217Z,99430.28
2022-09-27T08:20:19.081Z,99432.03
2022-09-27T08:23:07.550Z,99446.81
2022-09-27T08:25:40.919Z,99476.53
2022-09-27T08:28:28.573Z,99457.63
2022-09-27T08:31:06.025Z,99453.31
2022-09-27T08:33:40.513Z,99420.81
2022-09-27T08:36:14.109Z,99448.25
2022-09-27T08:38:43.142Z,99462.63
2022-09-27T08:41:23.907Z,99472.03
2022-09-27T08:43:55.951Z,99480.66
2022-09-27T08:46:48.875Z,99481.47
2022-09-27T08:49:36.594Z,99453.38
2022-09-27T08:52:09.518Z,99449.97
2022-09-27T08:54:39.638Z,99450.03
2022-09-27T08:57:13.596Z,99475.81
2022-09-27T08:59:44.476Z,99494.59
2022-09-27T09:02:20.449Z,99461.22
2022-09-27T09:04:58.574Z,99453.59
2022-09-27T09:07:33.215Z,99487.59
2022-09-27T09:10:48.522Z,99494.53
2022-09-27T09:13:38.652Z,99488.25
2022-09-27T09:16:12.543Z,99501.28
2022-09-27T09:18:54.728Z,99501.28
2022-09-27T09:21:54.760Z,99507.13
2022-09-27T09:24:31.459Z,99472.97
2022-09-27T09:27:12.082Z,99517.56
2022-09-27T09:30:06.279Z,99522.06
2022-09-27T09:33:16.368Z,99473.44
2022-09-27T09:36:07.109Z,99498.28
2022-09-27T09:38:36.056Z,99531.72
2022-09-27T09:41:10.898Z,99469.28
2022-09-27T09:43:51.326Z,99487.28
2022-09-27T09:46:30.149Z,99512.28
2022-09-27T09:49:10.340Z,99478.16
2022-09-27T09:51:51.089Z,99488.34
2022-09-27T09:55:18.625Z,99543.16
2022-09-27T09:57:56.139Z,99565.72
2022-09-27T10:00:28.425Z,99498.94
2022-09-27T10:03:00.691Z,99545.28
2022-09-27T10:05:30.199Z,99558.25
2022-09-27T10:08:08.618Z,99536.78
2022-09-27T10:10:38.153Z,99538.59
2022-09-27T10:13:36.492Z,99509.69
2022-09-27T10:16:12.047Z,99554.97
2022-09-27T10:18:49.071Z,99550.78
2022-09-27T10:21:31.090Z,99532.94
2022-09-27T10:24:06.853Z,99575.63
2022-09-27T10:26:52.492Z,99575.63
2022-09-27T10:29:21.147Z,99558.44
2022-09-27T10:31:51.170Z,99527.38
2022-09-27T10:34:27.251Z,99520.53
2022-09-27T10:37:08.937Z,99507.63
2022-09-27T10:39:44.930Z,99533.38
2022-09-27T10:42:39.904Z,99568.47
2022-09-27T10:45:33.470Z,99579.88
2022-09-27T10:48:24.389Z,99571.28
2022-09-27T10:50:59.960Z,99580.81
2022-09-27T10:53:48.714Z,99550.66
2022-09-27T10:56:35.519Z,99571.34
2022-09-27T10:59:06.575Z,99579.91
2022-09-27T11:01:47.409Z,99571.44
2022-09-27T11:04:25.861Z,99596.19
2022-09-27T11:07:10.192Z,99602.31
2022-09-27T11:09:55.314Z,99579.81
2022-09-27T11:12:26.282Z,99599.56
2022-09-27T11:15:01.764Z,99594.00
2022-09-27T11:17:52.912Z,99625.66
2022-09-27T11:20:37.518Z,99626.44
2022-09-27T11:23:32.723Z,99622.06
2022-09-27T11:26:34.759Z,99593.91
2022-09-27T11:29:08.556Z,99620.38
2022-09-27T11:32:18.194Z,99636.88
2022-09-27T11:35:28.751Z,99633.53
2022-09-27T11:38:51.046Z,99636.09
2022-09-27T11:41:38.612Z,99651.72
2022-09-27T11:44:35.683Z,99657.88
2022-09-27T11:47:13.464Z,99662.16
2022-09-27T11:50:35.023Z,99652.81
2022-09-27T11:53:20.808Z,99670.91
2022-09-27T11:56:08.814Z,99673.47
2022-09-27T11:58:57.438Z,99670.09
2022-09-27T12:01:45.711Z,99682.31
2022-09-27T12:04:46.660Z,99690.13
2022-09-27T12:07:38.057Z,99688.41
2022-09-27T12:10:14.637Z,99673.00
2022-09-27T12:12:47.556Z,99692.78
2022-09-27T12:15:30.948Z,99675.00
2022-09-27T12:18:32.780Z,99704.22
2022-09-27T12:21:08.888Z,99614.38
2022-09-27T12:24:07.205Z,99700.94
2022-09-27T12:26:53.617Z,99671.88
2022-09-27T12:29:28.441Z,99715.75
2022-09-27T12:32:11.991Z,99714.16
2022-09-27T12:35:00.334Z,99713.25
2022-09-27T12:38:07.239Z,99713.25
2022-09-27T12:40:59.657Z,99705.63
2022-09-27T12:43:44.776Z,99704.50
2022-09-27T12:46:51.106Z,99705.47
2022-09-27T12:49:41.225Z,99728.66
2022-09-27T12:52:23.068Z,99663.53
2022-09-27T12:55:09.978Z,99727.88
2022-09-27T12:57:51.604Z,99742.63
2022-09-27T13:00:39.155Z,99717.75
2022-09-27T13:03:28.884Z,99747.03
2022-09-27T13:06:35.629Z,99752.22
2022-09-27T13:09:12.181Z,99760.88
2022-09-27T13:11:51.725Z,99753.88
2022-09-27T13:14:25.473Z,99712.78
2022-09-27T13:16:54.890Z,99713.63
2022-09-27T13:19:36.726Z,99749.63
2022-09-27T13:22:29.160Z,99732.56
2022-09-27T13:25:56.575Z,99754.91
2022-09-27T13:28:58.923Z,99736.16
2022-09-27T13:31:55.758Z,99762.94
2022-09-27T13:34:42.757Z,99767.25
2022-09-27T13:37:37.662Z,99772.47
2022-09-27T13:40:17.173Z,99775.03
2022-09-27T13:43:13.890Z,99781.00
2022-09-27T13:46:02.967Z,99773.38
2022-09-27T13:48:41.186Z,99783.66
2022-09-27T13:51:34.696Z,99786.50
2022-09-27T13:54:10.279Z,99778.59
2022-09-27T13:56:49.791Z,99800.16
2022-09-27T13:59:47.320Z,99794.22
2022-09-27T14:03:01.680Z,99755.63
2022-09-27T14:05:45.124Z,99771.09
2022-09-27T14:08:32.712Z,99781.53
2022-09-27T14:11:04.307Z,99779.88
2022-09-27T14:13:34.463Z,99770.50
2022-09-27T14:16:10.422Z,99810.22
2022-09-27T14:18:51.463Z,99785.22
2022-09-27T14:21:26.070Z,99811.94
2022-09-27T14:24:34.021Z,99797.31
2022-09-27T14:27:27.364Z,99808.56
2022-09-27T14:30:17.625Z,99809.63
2022-09-27T14:32:56.101Z,99819.03
2022-09-27T14:35:53.136Z,99809.56
2022-09-27T14:38:39.208Z,99816.47
2022-09-27T14:41:18.014Z,99820.72
2022-09-27T14:43:51.346Z,99827.59
2022-09-27T14:46:31.681Z,99818.09
2022-09-27T14:49:12.508Z,99810.41
2022-09-27T14:51:41.738Z,99790.59
2022-09-27T14:54:26.186Z,99813.16
2022-09-27T14:56:57.068Z,99819.03
2022-09-27T14:59:31.814Z,99837.06
2022-09-27T15:02:03.052Z,99802.69
2022-09-27T15:04:33.129Z,99815.56
2022-09-27T15:07:03.928Z,99832.78
2022-09-27T15:09:33.476Z,99804.44
2022-09-27T15:12:05.677Z,99808.75
2022-09-27T15:14:38.266Z,99809.56
2022-09-27T15:17:07.752Z,99820.75
2022-09-27T15:19:36.316Z,99807.84
2022-09-27T15:22:36.554Z,99814.78
2022-09-27T15:25:07.465Z,99798.47
2022-09-27T15:27:36.305Z,99774.44
2022-09-27T15:30:06.371Z,99763.34
2022-09-27T15:32:35.244Z,99818.38
2022-09-27T15:35:09.623Z,99826.97
2022-09-27T15:37:40.149Z,99833.06
2022-09-27T15:40:18.322Z,99839.03
2022-09-27T15:43:04.952Z,99816.78
2022-09-27T15:45:39.751Z,99841.66
2022-09-27T15:48:20.911Z,99815.84
2022-09-27T15:50:50.911Z,99824.50
2022-09-27T15:53:38.323Z,99847.69
2022-09-27T15:56:07.893Z,99781.63
2022-09-27T15:58:38.058Z,99835.69
2022-09-27T16:01:07.407Z,99846.81
2022-09-27T16:03:36.185Z,99856.31
2022-09-27T16:06:05.457Z,99824.66
2022-09-27T16:08:34.360Z,99853.78
2022-09-27T16:11:03.976Z,99864.19
2022-09-27T16:13:33.455Z,99849.53
2022-09-27T16:16:03.887Z,99828.94
2022-09-27T16:18:34.216Z,99862.50
2022-09-27T16:21:02.998Z,99856.59
2022-09-27T16:23:31.780Z,99852.31
2022-09-27T16:26:03.435Z,99858.31
2022-09-27T16:28:33.558Z,99801.56
2022-09-27T16:31:05.274Z,99808.41
2022-09-27T16:33:35.320Z,99869.38
2022-09-27T16:36:09.792Z,99860.00
2022-09-27T16:38:38.319Z,99848.88
2022-09-27T16:41:06.827Z,99861.88
2022-09-27T16:43:35.420Z,99830.16
2022-09-27T16:46:12.378Z,99881.66
2022-09-27T16:48:41.100Z,99881.63
2022-09-27T16:51:34.918Z,99859.31
2022-09-27T16:54:04.461Z,99861.06
2022-09-27T16:56:34.342Z,99864.63
2022-09-27T16:59:05.430Z,99819.09
2022-09-27T17:01:34.782Z,99870.56
2022-09-27T17:04:04.322Z,99858.72
2022-09-27T17:06:32.798Z,99872.41
2022-09-27T17:09:04.561Z,99860.41
2022-09-27T17:11:33.538Z,99884.50
2022-09-27T17:14:02.134Z,99873.41
2022-09-27T17:16:30.818Z,99870.03
2022-09-27T17:18:59.358Z,99887.19
2022-09-27T17:21:28.156Z,99873.38
2022-09-27T17:23:59.081Z,99838.19
2022-09-27T17:26:31.420Z,99899.00
2022-09-27T17:29:02.095Z,99901.56
2022-09-27T17:31:31.970Z,99897.25
2022-09-27T17:34:00.815Z,99884.41
2022-09-27T17:36:33.473Z,99850.88
2022-09-27T17:39:02.732Z,99862.00
2022-09-27T17:41:34.325Z,99904.16
2022-09-27T17:44:07.247Z,99905.06
2022-09-27T17:46:38.841Z,99868.09
2022-09-27T17:49:26.838Z,99891.34
2022-09-27T17:51:55.642Z,99881.94
2022-09-27T17:54:29.868Z,99914.63
2022-09-27T17:56:59.660Z,99890.66
2022-09-27T17:59:30.205Z,99856.28
2022-09-27T18:02:00.703Z,99873.44
2022-09-27T18:04:29.575Z,99915.41
2022-09-27T18:07:00.811Z,99881.06
2022-09-27T18:09:29.598Z,99904.22
2022-09-27T18:11:58.420Z,99893.88
2022-09-27T18:14:30.377Z,99866.50
2022-09-27T18:17:00.311Z,99913.75
2022-09-27T18:19:29.040Z,99899.94
2022-09-27T18:21:57.700Z,99876.69
2022-09-27T18:24:26.840Z,99875.84
2022-09-27T18:27:00.372Z,99907.72
2022-09-27T18:29:29.618Z,99867.22
2022-09-27T18:32:03.183Z,99912.72
2022-09-27T18:34:31.670Z,99894.69
2022-09-27T18:37:00.486Z,99884.31
2022-09-27T18:39:29.519Z,99889.53
2022-09-27T18:41:58.119Z,99881.72
2022-09-27T18:44:27.157Z,99921.31
2022-09-27T18:46:56.304Z,99876.66
2022-09-27T18:49:27.011Z,99813.00
2022-09-27T18:51:57.106Z,99871.25
2022-09-27T18:54:25.717Z,99897.19
2022-09-27T18:56:54.772Z,99921.06
2022-09-27T18:59:24.545Z,99856.66
2022-09-27T19:01:53.526Z,99904.03
2022-09-27T19:04:25.366Z,99872.19
2022-09-27T19:06:56.125Z,99880.81
2022-09-27T19:09:27.786Z,99923.03
2022-09-27T19:11:56.407Z,99910.03
2022-09-27T19:14:25.235Z,99857.63
2022-09-27T19:16:53.847Z,99893.75
2022-09-27T19:19:22.958Z,99926.34
2022-09-27T19:21:51.297Z,99869.63
2022-09-27T19:24:20.182Z,99903.09
2022-09-27T19:26:48.999Z,99886.81
2022-09-27T19:29:20.233Z,99897.09
2022-09-27T19:31:48.760Z,99834.38
2022-09-27T19:34:18.999Z,99899.69
2022-09-27T19:36:47.480Z,99926.34
2022-09-27T19:39:16.146Z,99866.13
2022-09-27T19:41:45.357Z,99898.66
2022-09-27T19:44:14.378Z,99896.91
2022-09-27T19:46:43.616Z,99924.28
2022-09-27T19:49:12.107Z,99897.72
2022-09-27T19:51:40.686Z,99915.78
2022-09-27T19:54:11.826Z,99890.78
2022-09-27T19:56:40.398Z,99931.97
2022-09-27T19:59:08.816Z,99890.84
2022-09-27T20:01:37.516Z,99932.91
2022-09-27T20:04:06.461Z,99936.38
2022-09-27T20:06:35.359Z,99939.84
2022-09-27T20:09:04.337Z,99835.97
2022-09-27T20:11:34.781Z,99926.97
2022-09-27T20:14:03.666Z,99928.91
2022-09-27T20:16:32.539Z,99937.56
2022-09-27T20:19:02.419Z,99936.72
2022-09-27T20:21:33.622Z,99950.53
2022-09-27T20:24:03.600Z,99949.00
2022-09-27T20:26:37.366Z,99937.78
2022-09-27T20:29:07.660Z,99949.78
2022-09-27T20:32:09.088Z,99930.06
2022-09-27T20:34:32.484Z,99926.59
2022-09-27T20:37:01.338Z,99954.13
2022-09-27T20:39:29.900Z,99939.59
2022-09-27T20:41:58.439Z,99944.78
2022-09-27T20:44:27.178Z,99944.78
2022-09-27T20:46:55.809Z,99963.72
2022-09-27T20:49:24.371Z,99946.59
2022-09-27T20:51:53.754Z,99945.72
2022-09-27T20:54:22.671Z,99930.28
2022-09-27T20:56:51.569Z,99953.47
2022-09-27T20:59:22.700Z,99932.81
2022-09-27T21:01:53.291Z,99944.88
2022-09-27T21:04:23.057Z,99967.34
2022-09-27T21:06:53.361Z,99946.69
2022-09-27T21:09:22.291Z,99952.78
2022-09-27T21:11:54.749Z,99939.88
2022-09-27T21:14:23.658Z,99954.59
2022-09-27T21:16:52.437Z,99963.19
2022-09-27T21:19:21.133Z,99955.47
2022-09-27T21:21:52.614Z,99969.19
2022-09-27T21:24:21.118Z,99962.31
2022-09-27T21:26:50.042Z,99921.16
2022-09-27T21:29:18.815Z,99965.84
2022-09-27T21:31:47.655Z,99959.75
2022-09-27T21:34:16.319Z,99911.69
2022-09-27T21:36:44.890Z,99961.47
2022-09-27T21:39:16.008Z,99961.59
2022-09-27T21:41:44.724Z,99982.19
2022-09-27T21:44:13.624Z,99952.22
2022-09-27T21:46:44.386Z,99992.66
2022-09-27T21:49:13.318Z,99913.69
2022-09-27T21:51:43.132Z,99976.38
2022-09-27T21:54:15.478Z,99976.38
2022-09-27T21:56:44.929Z,99989.31
2022-09-27T21:59:19.083Z,99970.31
2022-09-27T22:01:47.964Z,99998.84
2022-09-27T22:04:16.913Z,99976.44
2022-09-27T22:06:45.862Z,99948.94
2022-09-27T22:09:17.517Z,100002.41
2022-09-27T22:11:48.205Z,99957.66
2022-09-27T22:14:20.283Z,100000.72
2022-09-27T22:16:49.488Z,99999.13
2022-09-27T22:19:18.838Z,100001.75
2022-09-27T22:21:48.009Z,99991.38
2022-09-27T22:24:19.164Z,100000.06
2022-09-27T22:26:50.339Z,100013.88
2022-09-27T22:29:19.299Z,99996.56
2022-09-27T22:31:48.511Z,99996.53
2022-09-27T22:34:19.365Z,99987.13
2022-09-27T22:36:48.175Z,99991.50
2022-09-27T22:39:16.992Z,100009.50
2022-09-27T22:41:46.112Z,99998.25
2022-09-27T22:44:14.808Z,100025.84
2022-09-27T22:46:44.734Z,100005.28
2022-09-27T22:49:16.234Z,99979.47
2022-09-27T22:51:45.127Z,100015.66
2022-09-27T22:54:14.405Z,100035.47
2022-09-27T22:56:43.090Z,100024.38
2022-09-27T22:59:11.672Z,100034.63
2022-09-27T23:01:40.394Z,100021.84
2022-09-27T23:04:10.399Z,100006.34
2022-09-27T23:06:40.784Z,100051.22
2022-09-27T23:09:10.403Z,100022.78
2022-09-27T23:11:41.953Z,100043.50
2022-09-27T23:14:12.042Z,100006.47
2022-09-27T23:16:40.803Z,100044.31
2022-09-27T23:19:10.567Z,100035.88
2022-09-27T23:21:39.411Z,100056.47
2022-09-27T23:24:07.980Z,100024.66
2022-09-27T23:26:36.581Z,100039.28
2022-09-27T23:29:05.560Z,100052.22
2022-09-27T23:31:34.588Z,100059.06
2022-09-27T23:34:05.732Z,100067.72
2022-09-27T23:36:35.373Z,100033.31
2022-09-27T23:39:04.652Z,100068.59
2022-09-27T23:41:33.328Z,100032.44
2022-09-27T23:44:02.209Z,100051.34
2022-09-27T23:46:31.441Z,100064.31
2022-09-27T23:48:59.999Z,100075.53
2022-09-27T23:51:28.597Z,100092.81
2022-09-27T23:53:58.667Z,100088.53
2022-09-27T23:56:27.406Z,100070.44
2022-09-27T23:58:55.925Z,100077.31
